Time;durP1;ratioP1;P1;durP2;ratioP2;P2;SDS_P1;SDS_P2;PMS_P1;PMS_P2;Temp;Humidity;BMP_temperature;BMP_pressure;BME280_temperature;BME280_humidity;BME280_pressure;Samples;Min_cycle;Max_cycle;Signal;HPM_P1;HPM_P2
2022/08/06 00:00:29;;;;;;;0.87;0.70;;;;;;;;;;5062377;28;20202;-69
2022/08/06 00:03:03;;;;;;;0.73;0.73;;;;;;;;;;5050191;28;20244;-69
2022/08/06 00:05:39;;;;;;;0.83;0.70;;;;;;;;;;5064004;28;20181;-69
2022/08/06 00:08:12;;;;;;;0.53;0.53;;;;;;;;;;5067125;28;20213;-69
2022/08/06 00:10:43;;;;;;;1.23;0.70;;;;;;;;;;5060319;28;20694;-69
2022/08/06 00:13:20;;;;;;;0.80;0.70;;;;;;;;;;5047223;28;20197;-69
2022/08/06 00:15:52;;;;;;;0.87;0.70;;;;;;;;;;5054951;28;20263;-69
2022/08/06 00:18:43;;;;;;;0.80;0.70;;;;;;;;;;5061902;28;20194;-69
2022/08/06 00:21:12;;;;;;;1.03;0.60;;;;;;;;;;5059822;28;20198;-69
2022/08/06 00:24:04;;;;;;;0.70;0.70;;;;;;;;;;5064925;28;20646;-69
2022/08/06 00:26:55;;;;;;;0.80;0.60;;;;;;;;;;5066730;28;20666;-69
2022/08/06 00:29:39;;;;;;;1.33;0.73;;;;;;;;;;5064665;28;20286;-69
2022/08/06 00:32:16;;;;;;;1.20;0.60;;;;;;;;;;5059062;28;20283;-69
2022/08/06 00:34:56;;;;;;;0.87;0.70;;;;;;;;;;5067336;28;20198;-69
2022/08/06 00:37:36;;;;;;;1.33;0.80;;;;;;;;;;5060417;28;20189;-69
2022/08/06 00:40:25;;;;;;;0.80;0.80;;;;;;;;;;5062966;28;20694;-69
2022/08/06 00:43:19;;;;;;;0.90;0.70;;;;;;;;;;5064755;28;20284;-68
2022/08/06 00:45:51;;;;;;;1.43;0.97;;;;;;;;;;5050091;28;20312;-69
2022/08/06 00:48:23;;;;;;;1.03;0.60;;;;;;;;;;5064907;28;20236;-68
2022/08/06 00:51:18;;;;;;;0.90;0.70;;;;;;;;;;5059221;28;20197;-69
2022/08/06 00:53:53;;;;;;;1.13;0.70;;;;;;;;;;5050955;28;20289;-69
2022/08/06 00:56:27;;;;;;;0.70;0.60;;;;;;;;;;5064463;28;20673;-69
2022/08/06 00:59:09;;;;;;;1.47;1.10;;;;;;;;;;5062420;28;20213;-69
2022/08/06 01:01:43;;;;;;;0.67;0.67;;;;;;;;;;5064919;28;20238;-68
2022/08/06 01:04:18;;;;;;;0.70;0.70;;;;;;;;;;5070994;28;20201;-69
2022/08/06 01:06:56;;;;;;;1.23;0.67;;;;;;;;;;5059779;28;20200;-69
2022/08/06 01:09:26;;;;;;;1.03;0.87;;;;;;;;;;5048136;28;20264;-68
2022/08/06 01:12:01;;;;;;;0.80;0.70;;;;;;;;;;5069901;28;20205;-68
2022/08/06 01:14:46;;;;;;;0.80;0.80;;;;;;;;;;5060113;28;20220;-69
2022/08/06 01:17:43;;;;;;;0.77;0.77;;;;;;;;;;5065926;28;20208;-68
2022/08/06 01:20:34;;;;;;;0.80;0.80;;;;;;;;;;5070225;28;20205;-69
2022/08/06 01:23:44;;;;;;;0.60;0.60;;;;;;;;;;5067581;28;20237;-68
2022/08/06 01:26:37;;;;;;;1.23;0.70;;;;;;;;;;5064672;28;20200;-68
2022/08/06 01:29:27;;;;;;;1.03;0.80;;;;;;;;;;5046515;28;20197;-69
2022/08/06 01:32:09;;;;;;;0.70;0.67;;;;;;;;;;5067038;28;20202;-68
2022/08/06 01:34:55;;;;;;;1.40;0.80;;;;;;;;;;5055725;28;20542;-69
2022/08/06 01:37:36;;;;;;;0.60;0.60;;;;;;;;;;5067019;28;20743;-70
2022/08/06 01:40:19;;;;;;;0.87;0.70;;;;;;;;;;5046864;28;20301;-68
2022/08/06 01:42:54;;;;;;;0.60;0.60;;;;;;;;;;5064517;28;20303;-70
2022/08/06 01:45:28;;;;;;;0.70;0.60;;;;;;;;;;5065737;28;20248;-68
2022/08/06 01:48:20;;;;;;;0.83;0.70;;;;;;;;;;5055239;28;20186;-70
2022/08/06 01:51:01;;;;;;;0.70;0.60;;;;;;;;;;5033662;28;20212;-69
2022/08/06 01:53:46;;;;;;;0.90;0.80;;;;;;;;;;5059001;28;20190;-70
2022/08/06 01:56:40;;;;;;;0.70;0.70;;;;;;;;;;5051032;28;20538;-69
2022/08/06 01:59:27;;;;;;;0.77;0.77;;;;;;;;;;5064812;28;20260;-69
2022/08/06 02:02:03;;;;;;;0.80;0.70;;;;;;;;;;5078102;28;20755;-69
2022/08/06 02:04:43;;;;;;;0.40;0.40;;;;;;;;;;5049141;28;20292;-69
2022/08/06 02:07:21;;;;;;;0.80;0.63;;;;;;;;;;5050474;28;20212;-69
2022/08/06 02:10:14;;;;;;;0.70;0.70;;;;;;;;;;5053046;28;20284;-68
2022/08/06 02:12:52;;;;;;;2.20;1.27;;;;;;;;;;5039127;28;20757;-68
2022/08/06 02:15:36;;;;;;;0.57;0.57;;;;;;;;;;5047712;28;20245;-68
2022/08/06 02:18:33;;;;;;;1.57;0.93;;;;;;;;;;5049791;28;20190;-69
2022/08/06 02:21:14;;;;;;;0.77;0.77;;;;;;;;;;5051845;28;20284;-68
2022/08/06 02:24:03;;;;;;;0.73;0.73;;;;;;;;;;5070254;28;20194;-69
2022/08/06 02:26:35;;;;;;;1.33;0.87;;;;;;;;;;5053319;28;20201;-69
2022/08/06 02:29:08;;;;;;;0.83;0.80;;;;;;;;;;5066978;28;20202;-69
2022/08/06 02:31:44;;;;;;;1.43;0.80;;;;;;;;;;5068396;28;20193;-69
2022/08/06 02:34:22;;;;;;;0.63;0.63;;;;;;;;;;5051910;28;20186;-69
2022/08/06 02:37:32;;;;;;;0.70;0.70;;;;;;;;;;5067357;28;20189;-69
2022/08/06 02:40:25;;;;;;;0.90;0.90;;;;;;;;;;4988748;28;20303;-68
2022/08/06 02:43:09;;;;;;;1.33;0.70;;;;;;;;;;4971152;28;20722;-69
2022/08/06 02:46:00;;;;;;;1.30;0.83;;;;;;;;;;4966597;28;20209;-68
2022/08/06 02:48:30;;;;;;;1.17;0.70;;;;;;;;;;4964357;28;20228;-69
2022/08/06 02:51:00;;;;;;;0.97;0.83;;;;;;;;;;4966782;28;20217;-69
2022/08/06 02:54:14;;;;;;;0.73;0.63;;;;;;;;;;4971012;28;20193;-69
2022/08/06 02:56:49;;;;;;;0.80;0.77;;;;;;;;;;4970032;28;20217;-69
2022/08/06 02:59:23;;;;;;;0.70;0.70;;;;;;;;;;4947901;28;20220;-69
2022/08/06 03:01:56;;;;;;;0.93;0.80;;;;;;;;;;4965849;28;20256;-69
2022/08/06 03:04:29;;;;;;;0.70;0.70;;;;;;;;;;4965634;28;20279;-69
2022/08/06 03:07:04;;;;;;;0.80;0.63;;;;;;;;;;4980341;28;20206;-68
2022/08/06 03:09:56;;;;;;;1.10;0.80;;;;;;;;;;5018017;28;20211;-68
2022/08/06 03:12:42;;;;;;;0.63;0.60;;;;;;;;;;5032025;28;20205;-69
2022/08/06 03:15:16;;;;;;;1.03;0.80;;;;;;;;;;5042901;28;20229;-68
2022/08/06 03:18:10;;;;;;;0.63;0.60;;;;;;;;;;5034034;28;20573;-68
2022/08/06 03:20:49;;;;;;;1.37;0.90;;;;;;;;;;5030790;28;20296;-69
2022/08/06 03:23:25;;;;;;;1.03;0.90;;;;;;;;;;5032336;28;20584;-69
2022/08/06 03:26:02;;;;;;;0.97;0.70;;;;;;;;;;5049567;28;20630;-69
2022/08/06 03:28:45;;;;;;;0.97;0.80;;;;;;;;;;5036522;28;20242;-69
2022/08/06 03:31:15;;;;;;;0.60;0.60;;;;;;;;;;5045038;28;20198;-69
2022/08/06 03:33:45;;;;;;;0.67;0.67;;;;;;;;;;5054025;28;20205;-69
2022/08/06 03:36:28;;;;;;;0.70;0.70;;;;;;;;;;5051512;28;20210;-69
2022/08/06 03:39:03;;;;;;;0.70;0.70;;;;;;;;;;5047967;28;20194;-68
2022/08/06 03:41:36;;;;;;;0.70;0.70;;;;;;;;;;5031665;28;20328;-69
2022/08/06 03:44:09;;;;;;;0.83;0.80;;;;;;;;;;5050976;28;20198;-69
2022/08/06 03:46:50;;;;;;;0.70;0.70;;;;;;;;;;5067683;28;20186;-68
2022/08/06 03:49:20;;;;;;;0.90;0.70;;;;;;;;;;5063061;28;20205;-69
2022/08/06 03:52:15;;;;;;;0.90;0.90;;;;;;;;;;5040883;28;20655;-69
2022/08/06 03:54:58;;;;;;;1.30;0.73;;;;;;;;;;5065927;28;20220;-68
2022/08/06 03:57:40;;;;;;;1.33;0.90;;;;;;;;;;5059226;28;20205;-66
2022/08/06 04:00:26;;;;;;;0.70;0.60;;;;;;;;;;5068085;28;20623;-67
2022/08/06 04:03:25;;;;;;;0.80;0.70;;;;;;;;;;5056373;28;20214;-68
2022/08/06 04:06:12;;;;;;;1.07;0.90;;;;;;;;;;5053831;28;20193;-67
2022/08/06 04:08:46;;;;;;;0.83;0.70;;;;;;;;;;5062692;28;20650;-65
2022/08/06 04:11:21;;;;;;;0.67;0.60;;;;;;;;;;5064439;28;20190;-69
2022/08/06 04:14:16;;;;;;;0.73;0.70;;;;;;;;;;5073136;28;20189;-69
2022/08/06 04:16:57;;;;;;;0.60;0.60;;;;;;;;;;5052613;28;20225;-67
2022/08/06 04:19:24;;;;;;;1.00;0.70;;;;;;;;;;5064147;28;20228;-67
2022/08/06 04:22:02;;;;;;;0.70;0.70;;;;;;;;;;5066872;28;20574;-68
2022/08/06 04:24:56;;;;;;;1.37;0.60;;;;;;;;;;5070707;28;20189;-68
2022/08/06 04:27:31;;;;;;;0.83;0.70;;;;;;;;;;5061555;28;21559;-68
2022/08/06 04:30:06;;;;;;;1.03;0.90;;;;;;;;;;5066932;28;20198;-68
2022/08/06 04:32:45;;;;;;;1.50;0.70;;;;;;;;;;5049212;28;20233;-66
2022/08/06 04:35:30;;;;;;;0.60;0.60;;;;;;;;;;5066024;28;20705;-66
2022/08/06 04:38:25;;;;;;;1.93;0.70;;;;;;;;;;5074942;28;20186;-66
2022/08/06 04:41:00;;;;;;;1.07;0.90;;;;;;;;;;5049629;28;20211;-68
2022/08/06 04:43:46;;;;;;;0.57;0.57;;;;;;;;;;5021842;28;20225;-68
2022/08/06 04:46:22;;;;;;;0.70;0.70;;;;;;;;;;5033912;28;20234;-69
2022/08/06 04:48:56;;;;;;;0.80;0.80;;;;;;;;;;5018741;28;20268;-69
2022/08/06 04:51:31;;;;;;;1.13;0.80;;;;;;;;;;5044339;28;23749;-66
2022/08/06 04:54:23;;;;;;;0.67;0.67;;;;;;;;;;5047036;28;20198;-66
2022/08/06 04:56:57;;;;;;;1.20;0.80;;;;;;;;;;5033715;28;20217;-68
2022/08/06 04:59:35;;;;;;;1.00;0.73;;;;;;;;;;5035293;28;20212;-68
2022/08/06 05:02:20;;;;;;;0.60;0.60;;;;;;;;;;5050158;28;20241;-68
2022/08/06 05:04:55;;;;;;;0.70;0.70;;;;;;;;;;5046446;28;20546;-68
2022/08/06 05:07:30;;;;;;;0.83;0.63;;;;;;;;;;5032613;28;20248;-67
2022/08/06 05:10:25;;;;;;;0.70;0.70;;;;;;;;;;5036910;28;20613;-66
2022/08/06 05:13:02;;;;;;;0.83;0.83;;;;;;;;;;5050450;28;20195;-67
2022/08/06 05:15:35;;;;;;;0.83;0.80;;;;;;;;;;5023358;28;20591;-67
2022/08/06 05:18:18;;;;;;;0.70;0.70;;;;;;;;;;5033839;28;20194;-67
2022/08/06 05:21:12;;;;;;;0.63;0.63;;;;;;;;;;5042905;28;20198;-68
2022/08/06 05:23:54;;;;;;;0.77;0.60;;;;;;;;;;5030765;28;20214;-68
2022/08/06 05:26:38;;;;;;;1.10;0.70;;;;;;;;;;5044908;28;20285;-66
2022/08/06 05:29:12;;;;;;;1.13;0.80;;;;;;;;;;5044357;28;20213;-66
2022/08/06 05:32:01;;;;;;;1.40;0.70;;;;;;;;;;5048272;28;20271;-66
2022/08/06 05:34:39;;;;;;;0.70;0.70;;;;;;;;;;5048157;28;20680;-66
2022/08/06 05:37:20;;;;;;;0.83;0.83;;;;;;;;;;5024999;28;20194;-66
2022/08/06 05:40:24;;;;;;;0.73;0.60;;;;;;;;;;5032447;28;20198;-67
2022/08/06 05:43:02;;;;;;;1.10;0.73;;;;;;;;;;5065733;28;20248;-66
2022/08/06 05:45:35;;;;;;;0.80;0.60;;;;;;;;;;5069290;28;20579;-68
2022/08/06 05:48:08;;;;;;;0.83;0.80;;;;;;;;;;5066159;28;20194;-69
2022/08/06 05:50:51;;;;;;;0.60;0.60;;;;;;;;;;5053412;28;20311;-69
2022/08/06 05:53:38;;;;;;;1.03;0.70;;;;;;;;;;5061412;28;20267;-68
2022/08/06 05:56:32;;;;;;;0.87;0.70;;;;;;;;;;5070422;28;20229;-68
2022/08/06 05:59:09;;;;;;;1.30;0.80;;;;;;;;;;5056430;28;20632;-68
2022/08/06 06:02:03;;;;;;;1.07;0.80;;;;;;;;;;5054751;28;20190;-69
2022/08/06 06:04:36;;;;;;;0.63;0.63;;;;;;;;;;5052362;28;20726;-69
2022/08/06 06:07:29;;;;;;;1.37;0.63;;;;;;;;;;5063053;28;20193;-66
2022/08/06 06:10:24;;;;;;;0.90;0.67;;;;;;;;;;5068357;28;20651;-68
2022/08/06 06:12:56;;;;;;;0.70;0.70;;;;;;;;;;5069187;28;20193;-68
2022/08/06 06:15:26;;;;;;;0.77;0.77;;;;;;;;;;5045647;28;20335;-66
2022/08/06 06:18:53;;;;;;;0.90;0.80;;;;;;;;;;5051834;28;20214;-66
2022/08/06 06:21:36;;;;;;;1.10;0.73;;;;;;;;;;4995844;28;20251;-66
2022/08/06 06:24:09;;;;;;;1.37;0.80;;;;;;;;;;5009516;28;20254;-66
2022/08/06 06:27:00;;;;;;;1.40;0.80;;;;;;;;;;5000106;28;20201;-67
2022/08/06 06:29:39;;;;;;;0.80;0.80;;;;;;;;;;4999943;28;20199;-66
2022/08/06 06:32:38;;;;;;;0.63;0.60;;;;;;;;;;4989929;28;20593;-66
2022/08/06 06:35:33;;;;;;;0.80;0.73;;;;;;;;;;5007258;28;20258;-66
2022/08/06 06:38:22;;;;;;;1.67;0.90;;;;;;;;;;5011360;28;20212;-66
2022/08/06 06:41:09;;;;;;;0.80;0.70;;;;;;;;;;5002591;28;20628;-68
2022/08/06 06:44:02;;;;;;;0.80;0.73;;;;;;;;;;4986755;28;20232;-68
2022/08/06 06:46:46;;;;;;;0.90;0.77;;;;;;;;;;4986919;28;20204;-68
2022/08/06 06:49:37;;;;;;;2.17;0.63;;;;;;;;;;4987208;28;20226;-69
2022/08/06 06:52:31;;;;;;;1.00;0.70;;;;;;;;;;5043375;28;20245;-67
2022/08/06 06:55:11;;;;;;;1.43;1.13;;;;;;;;;;5030969;28;20651;-67
2022/08/06 06:57:50;;;;;;;0.80;0.60;;;;;;;;;;5032145;28;20412;-66
2022/08/06 07:00:20;;;;;;;0.70;0.70;;;;;;;;;;5030198;28;20218;-68
2022/08/06 07:03:14;;;;;;;0.93;0.70;;;;;;;;;;5030410;28;20210;-68
2022/08/06 07:05:52;;;;;;;0.87;0.87;;;;;;;;;;5048048;28;20186;-69
2022/08/06 07:08:44;;;;;;;0.87;0.73;;;;;;;;;;5047726;28;20191;-68
2022/08/06 07:11:24;;;;;;;0.60;0.60;;;;;;;;;;5045498;28;20226;-69
2022/08/06 07:14:07;;;;;;;0.70;0.60;;;;;;;;;;5047520;28;20710;-69
2022/08/06 07:16:41;;;;;;;0.90;0.70;;;;;;;;;;5043764;28;20659;-67
2022/08/06 07:19:22;;;;;;;0.63;0.63;;;;;;;;;;5048492;28;20194;-67
2022/08/06 07:21:54;;;;;;;0.70;0.60;;;;;;;;;;5048371;28;20199;-65
2022/08/06 07:24:39;;;;;;;0.70;0.70;;;;;;;;;;5049201;28;20210;-65
2022/08/06 07:27:20;;;;;;;0.90;0.70;;;;;;;;;;5033984;28;20224;-67
2022/08/06 07:30:10;;;;;;;0.67;0.67;;;;;;;;;;5029094;28;20210;-65
2022/08/06 07:32:46;;;;;;;0.87;0.70;;;;;;;;;;5034348;28;20191;-65
2022/08/06 07:35:23;;;;;;;0.97;0.90;;;;;;;;;;5028323;28;20231;-68
2022/08/06 07:38:20;;;;;;;0.90;0.60;;;;;;;;;;5047206;28;20238;-68
2022/08/06 07:40:56;;;;;;;0.60;0.50;;;;;;;;;;5043652;28;20202;-69
2022/08/06 07:43:42;;;;;;;0.70;0.67;;;;;;;;;;5047643;28;20222;-69
2022/08/06 07:46:20;;;;;;;0.97;0.70;;;;;;;;;;5049485;28;20201;-66
2022/08/06 07:49:07;;;;;;;0.70;0.60;;;;;;;;;;5051133;28;20536;-66
2022/08/06 07:51:43;;;;;;;0.77;0.50;;;;;;;;;;5030741;28;20214;-66
2022/08/06 07:54:14;;;;;;;0.57;0.57;;;;;;;;;;5047142;28;20209;-66
2022/08/06 07:57:04;;;;;;;0.80;0.80;;;;;;;;;;5033350;28;20224;-67
2022/08/06 07:59:49;;;;;;;0.63;0.50;;;;;;;;;;5027995;28;20202;-65
2022/08/06 08:02:24;;;;;;;0.90;0.70;;;;;;;;;;5050357;28;20193;-67
2022/08/06 08:08:06;;;;;;;0.63;0.50;;;;;;;;;;4950259;28;20224;-69
2022/08/06 08:10:47;;;;;;;0.70;0.70;;;;;;;;;;5045253;28;20222;-68
2022/08/06 08:13:21;;;;;;;0.70;0.60;;;;;;;;;;5027032;28;20588;-69
2022/08/06 08:16:11;;;;;;;0.57;0.57;;;;;;;;;;5026429;28;20431;-69
2022/08/06 08:18:57;;;;;;;0.50;0.50;;;;;;;;;;5033552;28;20194;-68
2022/08/06 08:21:40;;;;;;;0.50;0.50;;;;;;;;;;5046127;28;20197;-68
2022/08/06 08:24:13;;;;;;;1.07;0.70;;;;;;;;;;5034785;28;20210;-69
2022/08/06 08:26:47;;;;;;;0.77;0.50;;;;;;;;;;5049347;28;20198;-66
2022/08/06 08:29:39;;;;;;;0.70;0.60;;;;;;;;;;5053758;28;20205;-66
2022/08/06 08:32:23;;;;;;;0.60;0.60;;;;;;;;;;5035123;28;20198;-68
2022/08/06 08:34:56;;;;;;;0.70;0.60;;;;;;;;;;5011822;28;20260;-69
2022/08/06 08:37:30;;;;;;;0.80;0.63;;;;;;;;;;5040429;28;20198;-67
2022/08/06 08:40:03;;;;;;;0.90;0.70;;;;;;;;;;5042837;28;20214;-66
2022/08/06 08:42:47;;;;;;;0.83;0.70;;;;;;;;;;5058689;28;20252;-66
2022/08/06 08:45:23;;;;;;;0.50;0.50;;;;;;;;;;5053638;28;20284;-66
2022/08/06 08:48:01;;;;;;;0.77;0.60;;;;;;;;;;5056219;28;20197;-65
2022/08/06 08:50:33;;;;;;;0.70;0.67;;;;;;;;;;5048861;28;20794;-68
2022/08/06 08:53:09;;;;;;;0.70;0.60;;;;;;;;;;5061594;28;20267;-68
2022/08/06 08:55:43;;;;;;;0.50;0.50;;;;;;;;;;5066126;28;20205;-68
2022/08/06 08:58:36;;;;;;;0.57;0.57;;;;;;;;;;5068410;28;20701;-69
2022/08/06 09:01:30;;;;;;;0.47;0.40;;;;;;;;;;5053969;28;20925;-69
2022/08/06 09:04:20;;;;;;;0.67;0.60;;;;;;;;;;5063178;28;20283;-69
2022/08/06 09:06:55;;;;;;;0.93;0.67;;;;;;;;;;5067473;28;20197;-69
2022/08/06 09:09:25;;;;;;;0.43;0.43;;;;;;;;;;5046839;28;20198;-69
2022/08/06 09:12:00;;;;;;;0.97;0.50;;;;;;;;;;5049848;28;20339;-69
2022/08/06 09:14:51;;;;;;;1.07;0.60;;;;;;;;;;5060229;28;20194;-68
2022/08/06 09:17:29;;;;;;;1.37;0.67;;;;;;;;;;5060669;28;20332;-68
2022/08/06 09:20:20;;;;;;;0.80;0.53;;;;;;;;;;5066661;28;20202;-68
2022/08/06 09:22:54;;;;;;;0.50;0.50;;;;;;;;;;5069703;28;20198;-69
2022/08/06 09:25:43;;;;;;;0.40;0.40;;;;;;;;;;5063509;28;20213;-69
2022/08/06 09:28:30;;;;;;;0.50;0.50;;;;;;;;;;5065288;28;20222;-69
2022/08/06 09:31:05;;;;;;;0.60;0.50;;;;;;;;;;5070474;28;20221;-66
2022/08/06 09:34:03;;;;;;;0.87;0.50;;;;;;;;;;5074835;28;20255;-66
2022/08/06 09:36:56;;;;;;;1.00;0.57;;;;;;;;;;5056669;28;20194;-69
2022/08/06 09:39:40;;;;;;;0.73;0.60;;;;;;;;;;5065248;28;20210;-68
2022/08/06 09:42:40;;;;;;;0.77;0.40;;;;;;;;;;5038799;28;20233;-68
2022/08/06 09:45:17;;;;;;;0.87;0.60;;;;;;;;;;5043335;28;20217;-66
2022/08/06 09:48:13;;;;;;;0.50;0.50;;;;;;;;;;5049062;28;20187;-66
2022/08/06 09:50:47;;;;;;;0.67;0.50;;;;;;;;;;5030990;28;20218;-66
2022/08/06 09:53:26;;;;;;;0.93;0.60;;;;;;;;;;5035378;28;20201;-66
2022/08/06 09:56:16;;;;;;;0.60;0.60;;;;;;;;;;5017460;28;20272;-68
2022/08/06 09:58:46;;;;;;;0.70;0.40;;;;;;;;;;5047783;28;20205;-68
2022/08/06 10:01:21;;;;;;;1.00;0.50;;;;;;;;;;5017994;28;20204;-68
2022/08/06 10:03:53;;;;;;;0.60;0.50;;;;;;;;;;5028035;28;20273;-68
2022/08/06 10:06:50;;;;;;;0.67;0.50;;;;;;;;;;5035742;28;20182;-68
2022/08/06 10:09:32;;;;;;;0.50;0.50;;;;;;;;;;5035491;28;20878;-68
2022/08/06 10:12:23;;;;;;;0.87;0.80;;;;;;;;;;5043589;28;20209;-68
2022/08/06 10:14:56;;;;;;;0.47;0.47;;;;;;;;;;5053403;28;20231;-67
2022/08/06 10:17:29;;;;;;;0.63;0.57;;;;;;;;;;5027741;28;20241;-65
2022/08/06 10:20:22;;;;;;;0.93;0.50;;;;;;;;;;5019779;28;20210;-65
2022/08/06 10:22:54;;;;;;;0.50;0.50;;;;;;;;;;5050474;28;20198;-65
2022/08/06 10:25:30;;;;;;;0.40;0.40;;;;;;;;;;5029375;28;20210;-65
2022/08/06 10:28:21;;;;;;;0.80;0.70;;;;;;;;;;5033371;28;20622;-65
2022/08/06 10:30:57;;;;;;;0.40;0.40;;;;;;;;;;5044162;28;20194;-66
2022/08/06 10:33:35;;;;;;;1.13;0.60;;;;;;;;;;5046574;28;20198;-65
2022/08/06 10:36:14;;;;;;;0.87;0.50;;;;;;;;;;5051884;28;20194;-67
2022/08/06 10:38:50;;;;;;;0.50;0.50;;;;;;;;;;5056615;28;20193;-67
2022/08/06 10:41:19;;;;;;;0.50;0.50;;;;;;;;;;5031790;28;20218;-65
2022/08/06 10:44:16;;;;;;;0.50;0.40;;;;;;;;;;5089092;28;20201;-64
2022/08/06 10:46:45;;;;;;;0.70;0.50;;;;;;;;;;5077776;28;20196;-68
2022/08/06 10:49:17;;;;;;;0.47;0.40;;;;;;;;;;5085970;28;20193;-67
2022/08/06 10:52:11;;;;;;;0.60;0.50;;;;;;;;;;5085510;28;20653;-68
2022/08/06 10:54:45;;;;;;;1.53;0.40;;;;;;;;;;5087922;28;20548;-67
2022/08/06 10:57:22;;;;;;;1.03;0.70;;;;;;;;;;5069887;28;20681;-65
2022/08/06 11:00:06;;;;;;;0.40;0.40;;;;;;;;;;5087978;28;20233;-66
2022/08/06 11:02:54;;;;;;;0.63;0.40;;;;;;;;;;5087741;28;20207;-66
2022/08/06 11:05:40;;;;;;;0.77;0.50;;;;;;;;;;5087969;28;20585;-67
2022/08/06 11:08:33;;;;;;;0.53;0.50;;;;;;;;;;5072119;28;20197;-68
2022/08/06 11:11:34;;;;;;;0.40;0.37;;;;;;;;;;5084264;28;20219;-65
2022/08/06 11:14:09;;;;;;;0.50;0.50;;;;;;;;;;5067101;28;20205;-65
2022/08/06 11:16:56;;;;;;;1.23;0.60;;;;;;;;;;5084145;28;20269;-66
2022/08/06 11:19:45;;;;;;;0.60;0.50;;;;;;;;;;5089597;28;20213;-66
2022/08/06 11:22:39;;;;;;;1.70;0.80;;;;;;;;;;5088115;28;20639;-66
2022/08/06 11:25:46;;;;;;;1.10;0.50;;;;;;;;;;5098304;28;20222;-67
2022/08/06 11:28:38;;;;;;;0.90;0.60;;;;;;;;;;5084105;28;20241;-67
2022/08/06 11:31:29;;;;;;;0.57;0.50;;;;;;;;;;5074047;28;20201;-66
2022/08/06 11:34:13;;;;;;;0.90;0.53;;;;;;;;;;5087561;28;20193;-66
2022/08/06 11:37:06;;;;;;;0.60;0.60;;;;;;;;;;5056614;28;20189;-67
2022/08/06 11:40:07;;;;;;;0.30;0.30;;;;;;;;;;5083526;28;20221;-68
2022/08/06 11:42:44;;;;;;;0.70;0.53;;;;;;;;;;5060822;28;20244;-68
2022/08/06 11:45:20;;;;;;;0.93;0.43;;;;;;;;;;5068447;28;20211;-68
2022/08/06 11:48:15;;;;;;;0.40;0.40;;;;;;;;;;5066068;28;20193;-68
2022/08/06 11:50:54;;;;;;;0.40;0.40;;;;;;;;;;5067184;28;20423;-66
2022/08/06 11:53:37;;;;;;;0.67;0.50;;;;;;;;;;5040105;28;20548;-65
2022/08/06 11:56:20;;;;;;;1.13;0.60;;;;;;;;;;5076430;28;20196;-66
2022/08/06 11:59:13;;;;;;;0.90;0.40;;;;;;;;;;5087164;28;20196;-66
2022/08/06 12:01:53;;;;;;;0.63;0.53;;;;;;;;;;5071795;28;20285;-67
2022/08/06 12:04:52;;;;;;;1.03;0.53;;;;;;;;;;5081526;28;20244;-68
2022/08/06 12:07:31;;;;;;;0.60;0.50;;;;;;;;;;5065129;28;20189;-68
2022/08/06 12:10:11;;;;;;;0.60;0.47;;;;;;;;;;5066533;28;20522;-68
2022/08/06 12:12:47;;;;;;;0.50;0.50;;;;;;;;;;5057638;28;20828;-69
2022/08/06 12:15:24;;;;;;;0.63;0.50;;;;;;;;;;5062976;28;20192;-66
2022/08/06 12:18:18;;;;;;;1.23;0.60;;;;;;;;;;5080261;28;20827;-66
2022/08/06 12:20:59;;;;;;;0.50;0.50;;;;;;;;;;5078208;28;20208;-66
2022/08/06 12:23:30;;;;;;;0.57;0.57;;;;;;;;;;5078479;28;20200;-66
2022/08/06 12:26:28;;;;;;;0.60;0.47;;;;;;;;;;5081286;28;20209;-66
2022/08/06 12:29:04;;;;;;;0.50;0.50;;;;;;;;;;5075946;28;20201;-66
2022/08/06 12:31:37;;;;;;;0.70;0.50;;;;;;;;;;5079094;28;20538;-69
2022/08/06 12:34:24;;;;;;;0.67;0.50;;;;;;;;;;5087245;28;20262;-69
2022/08/06 12:36:56;;;;;;;0.50;0.50;;;;;;;;;;5075366;28;20192;-66
2022/08/06 12:42:41;;;;;;;2.03;0.50;;;;;;;;;;5086729;28;20241;-67
2022/08/06 12:45:33;;;;;;;0.60;0.60;;;;;;;;;;5086677;28;20699;-66
2022/08/06 12:48:24;;;;;;;0.60;0.40;;;;;;;;;;5075765;28;20239;-67
2022/08/06 12:51:06;;;;;;;0.77;0.60;;;;;;;;;;5070174;28;20219;-68
2022/08/06 12:54:03;;;;;;;0.60;0.50;;;;;;;;;;5075488;28;20638;-69
2022/08/06 12:56:54;;;;;;;0.97;0.50;;;;;;;;;;5087090;28;20323;-68
2022/08/06 12:59:26;;;;;;;0.90;0.40;;;;;;;;;;5070265;28;20530;-68
2022/08/06 13:02:11;;;;;;;0.40;0.40;;;;;;;;;;5082463;28;20212;-68
2022/08/06 13:04:54;;;;;;;0.50;0.40;;;;;;;;;;5076312;28;20692;-70
2022/08/06 13:07:27;;;;;;;0.47;0.47;;;;;;;;;;5071282;28;20205;-68
2022/08/06 13:10:12;;;;;;;0.67;0.60;;;;;;;;;;5090197;28;20213;-66
2022/08/06 13:13:10;;;;;;;0.70;0.60;;;;;;;;;;5066244;28;20193;-66
2022/08/06 13:16:22;;;;;;;0.60;0.60;;;;;;;;;;5087477;28;20810;-69
2022/08/06 13:19:05;;;;;;;0.70;0.63;;;;;;;;;;5090897;28;20267;-68
2022/08/06 13:21:57;;;;;;;0.40;0.40;;;;;;;;;;5039773;28;20202;-69
2022/08/06 13:24:30;;;;;;;0.50;0.50;;;;;;;;;;5084638;28;20235;-68
2022/08/06 13:27:02;;;;;;;0.53;0.40;;;;;;;;;;5091952;28;20185;-66
2022/08/06 13:29:36;;;;;;;0.50;0.50;;;;;;;;;;5072116;28;20197;-66
2022/08/06 13:32:30;;;;;;;1.00;0.60;;;;;;;;;;5080730;28;20230;-70
2022/08/06 13:35:10;;;;;;;0.43;0.40;;;;;;;;;;5090555;28;20196;-70
2022/08/06 13:37:52;;;;;;;0.93;0.40;;;;;;;;;;5067378;28;20185;-69
2022/08/06 13:40:47;;;;;;;0.40;0.40;;;;;;;;;;5085816;28;20217;-66
2022/08/06 13:43:39;;;;;;;0.40;0.40;;;;;;;;;;5072446;28;20293;-67
2022/08/06 13:46:21;;;;;;;0.57;0.47;;;;;;;;;;5089939;28;20205;-69
2022/08/06 13:49:02;;;;;;;0.53;0.40;;;;;;;;;;5090541;28;20197;-70
2022/08/06 13:51:43;;;;;;;1.47;0.70;;;;;;;;;;5076745;28;20215;-69
2022/08/06 13:54:23;;;;;;;0.60;0.60;;;;;;;;;;5086381;28;20205;-69
2022/08/06 13:56:57;;;;;;;0.47;0.40;;;;;;;;;;5090066;28;20204;-68
2022/08/06 13:59:29;;;;;;;0.63;0.60;;;;;;;;;;5086539;28;20208;-67
2022/08/06 14:02:10;;;;;;;0.80;0.50;;;;;;;;;;5089862;28;20196;-67
2022/08/06 14:04:43;;;;;;;0.80;0.60;;;;;;;;;;5058178;28;20661;-68
2022/08/06 14:07:30;;;;;;;0.50;0.50;;;;;;;;;;5088648;28;20274;-67
2022/08/06 14:10:00;;;;;;;0.90;0.60;;;;;;;;;;5090453;28;20613;-66
2022/08/06 14:12:38;;;;;;;1.30;0.60;;;;;;;;;;5090225;28;20196;-69
2022/08/06 14:15:11;;;;;;;0.50;0.50;;;;;;;;;;5073558;28;20845;-67
2022/08/06 14:17:44;;;;;;;0.50;0.50;;;;;;;;;;5095353;28;20272;-67
2022/08/06 14:20:18;;;;;;;0.60;0.53;;;;;;;;;;5074666;28;20239;-68
2022/08/06 14:22:58;;;;;;;0.60;0.60;;;;;;;;;;5092270;28;20209;-69
2022/08/06 14:25:34;;;;;;;0.50;0.50;;;;;;;;;;5098897;28;21053;-67
2022/08/06 14:28:20;;;;;;;0.80;0.60;;;;;;;;;;5071091;28;20270;-67
2022/08/06 14:30:52;;;;;;;0.90;0.70;;;;;;;;;;5071900;28;20197;-67
2022/08/06 14:33:25;;;;;;;1.27;0.83;;;;;;;;;;5086503;28;20250;-67
2022/08/06 14:36:05;;;;;;;0.50;0.50;;;;;;;;;;5089175;28;20201;-67
2022/08/06 14:38:40;;;;;;;0.50;0.50;;;;;;;;;;5089262;28;20673;-67
2022/08/06 14:47:14;;;;;;;0.60;0.50;;;;;;;;;;5086091;28;20189;-69
2022/08/06 14:50:09;;;;;;;0.50;0.50;;;;;;;;;;5077122;28;20193;-68
2022/08/06 14:52:40;;;;;;;0.60;0.60;;;;;;;;;;5084478;28;20225;-67
2022/08/06 14:55:13;;;;;;;0.80;0.80;;;;;;;;;;5087384;28;20602;-69
2022/08/06 14:57:51;;;;;;;0.70;0.60;;;;;;;;;;5088362;28;20189;-69
2022/08/06 15:00:37;;;;;;;1.10;0.80;;;;;;;;;;5087014;28;20193;-69
2022/08/06 15:03:06;;;;;;;0.60;0.60;;;;;;;;;;5070598;28;20182;-70
2022/08/06 15:05:45;;;;;;;0.53;0.53;;;;;;;;;;5088034;28;20224;-70
2022/08/06 15:08:36;;;;;;;0.60;0.60;;;;;;;;;;5088563;28;20197;-69
2022/08/06 15:11:18;;;;;;;0.73;0.53;;;;;;;;;;5085393;28;20271;-68
2022/08/06 15:13:51;;;;;;;0.57;0.50;;;;;;;;;;5088333;28;20185;-69
2022/08/06 15:16:27;;;;;;;0.73;0.73;;;;;;;;;;5081757;28;20594;-69
2022/08/06 15:19:29;;;;;;;0.70;0.50;;;;;;;;;;5074628;28;20240;-68
2022/08/06 15:22:15;;;;;;;1.13;0.70;;;;;;;;;;5087807;28;20199;-68
2022/08/06 15:25:04;;;;;;;0.80;0.60;;;;;;;;;;5095829;28;20273;-69
2022/08/06 15:27:35;;;;;;;0.60;0.60;;;;;;;;;;5084032;28;20217;-69
2022/08/06 15:30:08;;;;;;;1.33;0.60;;;;;;;;;;5087648;28;20215;-67
2022/08/06 15:32:39;;;;;;;0.90;0.80;;;;;;;;;;5087711;28;20665;-67
2022/08/06 15:35:24;;;;;;;0.77;0.77;;;;;;;;;;5076718;28;20267;-69
2022/08/06 15:38:14;;;;;;;0.60;0.57;;;;;;;;;;5086956;28;20327;-69
2022/08/06 15:40:47;;;;;;;0.57;0.40;;;;;;;;;;5083656;28;20274;-68
2022/08/06 15:43:27;;;;;;;1.00;0.70;;;;;;;;;;5084061;28;20269;-69
2022/08/06 15:46:15;;;;;;;0.60;0.60;;;;;;;;;;5088012;28;20223;-69
2022/08/06 15:48:56;;;;;;;0.70;0.50;;;;;;;;;;5072174;28;20201;-69
2022/08/06 15:51:30;;;;;;;0.77;0.50;;;;;;;;;;5047769;28;20204;-69
2022/08/06 15:54:05;;;;;;;0.43;0.43;;;;;;;;;;5069378;28;20201;-69
2022/08/06 15:56:42;;;;;;;0.80;0.60;;;;;;;;;;5087624;28;20203;-69
2022/08/06 15:59:19;;;;;;;0.80;0.60;;;;;;;;;;5068009;28;20197;-68
2022/08/06 16:01:51;;;;;;;0.53;0.50;;;;;;;;;;5087329;28;20200;-69
2022/08/06 16:04:37;;;;;;;0.70;0.70;;;;;;;;;;5083303;28;20232;-69
2022/08/06 16:07:21;;;;;;;0.60;0.60;;;;;;;;;;5084473;28;20295;-68
2022/08/06 16:09:54;;;;;;;0.60;0.60;;;;;;;;;;5087112;28;20650;-69
2022/08/06 16:12:40;;;;;;;1.23;0.73;;;;;;;;;;5079630;28;20299;-67
2022/08/06 16:15:10;;;;;;;0.87;0.60;;;;;;;;;;5046773;28;20330;-66
2022/08/06 16:17:48;;;;;;;0.50;0.50;;;;;;;;;;5085755;28;20236;-67
2022/08/06 16:20:45;;;;;;;1.00;0.80;;;;;;;;;;5085953;28;20274;-68
2022/08/06 16:23:22;;;;;;;0.90;0.63;;;;;;;;;;5067331;28;20656;-69